Time;durP1;ratioP1;P1;durP2;ratioP2;P2;SDS_P1;SDS_P2;PMS_P1;PMS_P2;Temp;Humidity;BMP_temperature;BMP_pressure;BME280_temperature;BME280_humidity;BME280_pressure;Samples;Min_cycle;Max_cycle;Signal;HPM_P1;HPM_P2
2022/10/21 00:00:20;;;;;;;66.55;25.75;;;;;;;13.36;100.00;100757.06;5068664;28;20035;-72
2022/10/21 00:02:45;;;;;;;68.20;27.80;;;;;;;13.34;100.00;100775.38;5068419;28;20031;-72
2022/10/21 00:05:11;;;;;;;63.22;25.73;;;;;;;13.35;100.00;100760.56;5067542;28;20021;-72
2022/10/21 00:07:36;;;;;;;62.15;27.05;;;;;;;13.34;100.00;100754.44;5068726;28;20259;-72
2022/10/21 00:10:04;;;;;;;55.90;25.42;;;;;;;13.34;100.00;100748.31;5068782;28;20036;-72
2022/10/21 00:12:30;;;;;;;59.53;24.98;;;;;;;13.33;100.00;100752.66;5068657;28;20063;-72
2022/10/21 00:14:55;;;;;;;60.78;26.20;;;;;;;13.34;100.00;100758.78;5066528;28;20048;-72
2022/10/21 00:17:20;;;;;;;67.03;27.00;;;;;;;13.35;100.00;100765.78;5068604;28;20467;-72
2022/10/21 00:19:46;;;;;;;69.70;27.30;;;;;;;13.36;100.00;100757.06;5068333;28;20028;-72
2022/10/21 00:22:11;;;;;;;68.28;27.05;;;;;;;13.36;100.00;100751.84;5067345;28;20039;-72
2022/10/21 00:24:36;;;;;;;63.45;25.13;;;;;;;13.35;100.00;100743.13;5084221;28;20583;-72
2022/10/21 00:27:02;;;;;;;56.03;24.73;;;;;;;13.35;100.00;100739.63;5084333;28;20043;-72
2022/10/21 00:29:28;;;;;;;62.25;25.42;;;;;;;13.33;100.00;100734.34;5069281;28;20118;-72
2022/10/21 00:31:53;;;;;;;65.22;27.83;;;;;;;13.31;100.00;100730.84;5068671;28;20029;-72
2022/10/21 00:34:20;;;;;;;63.85;28.08;;;;;;;13.29;100.00;100722.06;5068636;28;20529;-72
2022/10/21 00:36:45;;;;;;;60.15;25.75;;;;;;;13.28;100.00;100735.13;5068228;28;20536;-72
2022/10/21 00:39:10;;;;;;;59.60;24.90;;;;;;;13.25;100.00;100728.13;5069583;28;20029;-72
2022/10/21 00:41:36;;;;;;;59.60;26.52;;;;;;;13.25;100.00;100733.34;5068546;28;20538;-72
2022/10/21 00:44:05;;;;;;;57.05;25.42;;;;;;;13.22;100.00;100739.47;5071542;28;20029;-72
2022/10/21 00:47:06;;;;;;;65.22;26.33;;;;;;;13.28;100.00;100740.38;5071394;28;20063;-72
2022/10/21 00:49:37;;;;;;;63.67;26.55;;;;;;;13.25;100.00;100742.97;5057000;28;20048;-72
2022/10/21 00:52:07;;;;;;;59.67;25.48;;;;;;;13.24;100.00;100744.72;5071237;28;20108;-72
2022/10/21 00:54:33;;;;;;;63.63;25.02;;;;;;;13.22;100.00;100751.66;5071761;28;20024;-72
2022/10/21 00:56:59;;;;;;;67.38;27.38;;;;;;;13.24;100.00;100742.09;5072133;28;20066;-76
2022/10/21 00:59:30;;;;;;;62.30;26.45;;;;;;;13.21;100.00;100731.59;5072540;28;20032;-76
2022/10/21 01:01:56;;;;;;;78.00;28.35;;;;;;;13.22;100.00;100722.88;5070987;28;20029;-76
2022/10/21 01:04:21;;;;;;;64.90;26.73;;;;;;;13.20;100.00;100714.13;5070992;28;20043;-76
2022/10/21 01:06:48;;;;;;;66.63;26.95;;;;;;;13.20;100.00;100714.13;5071877;28;20541;-76
2022/10/21 01:09:14;;;;;;;65.40;25.27;;;;;;;13.19;100.00;100707.13;5071590;28;20028;-76
2022/10/21 01:11:43;;;;;;;61.92;26.75;;;;;;;13.17;100.00;100709.75;5072053;28;20388;-76
2022/10/21 01:14:45;;;;;;;64.15;26.60;;;;;;;13.12;100.00;100700.97;5071327;28;20025;-76
2022/10/21 01:17:58;;;;;;;62.03;25.67;;;;;;;13.11;100.00;100703.59;5070752;28;20400;-76
2022/10/21 01:21:08;;;;;;;63.85;24.33;;;;;;;13.11;100.00;100695.75;5054070;28;20048;-76
2022/10/21 01:23:39;;;;;;;60.85;25.20;;;;;;;13.06;100.00;100693.03;5029296;28;20431;-76
2022/10/21 01:26:29;;;;;;;60.20;24.30;;;;;;;13.02;100.00;100686.03;5065502;28;20052;-76
2022/10/21 01:29:18;;;;;;;66.22;25.95;;;;;;;12.98;100.00;100687.75;5071392;28;20020;-75
2022/10/21 01:31:58;;;;;;;63.93;24.30;;;;;;;12.95;100.00;100679.88;5071679;28;20383;-76
2022/10/21 01:34:44;;;;;;;57.95;24.27;;;;;;;12.96;100.00;100679.00;5070965;28;20377;-76
2022/10/21 01:37:21;;;;;;;55.92;24.08;;;;;;;12.94;100.00;100678.09;5070412;28;20082;-76
2022/10/21 01:39:57;;;;;;;60.78;23.98;;;;;;;12.92;100.00;100669.38;5072001;28;20107;-76
2022/10/21 01:42:42;;;;;;;57.05;23.60;;;;;;;12.88;100.00;100670.19;5068317;28;20039;-76
2022/10/21 01:45:30;;;;;;;54.45;22.70;;;;;;;12.83;100.00;100664.91;5069432;28;20025;-76
2022/10/21 01:48:01;;;;;;;55.10;22.38;;;;;;;12.80;100.00;100657.03;5063921;28;20107;-76
2022/10/21 01:50:32;;;;;;;54.22;23.08;;;;;;;12.79;100.00;100654.38;5070643;28;20028;-76
2022/10/21 01:53:04;;;;;;;62.53;24.92;;;;;;;12.78;100.00;100650.03;5070690;28;20111;-76
2022/10/21 01:55:31;;;;;;;50.63;21.88;;;;;;;12.77;100.00;100645.66;5069518;28;20019;-76
2022/10/21 01:58:10;;;;;;;62.35;24.92;;;;;;;12.77;100.00;100653.50;5070735;28;20154;-72
2022/10/21 02:00:36;;;;;;;59.80;23.00;;;;;;;12.74;100.00;100648.25;5070877;28;20028;-72
2022/10/21 02:03:06;;;;;;;55.22;21.17;;;;;;;12.72;100.00;100640.38;5071029;28;20032;-72
2022/10/21 02:05:33;;;;;;;53.45;21.05;;;;;;;12.72;100.00;100642.13;5070688;28;20035;-72
2022/10/21 02:07:59;;;;;;;52.28;21.65;;;;;;;12.72;100.00;100648.22;5070076;28;20112;-72
2022/10/21 02:10:35;;;;;;;52.25;23.15;;;;;;;12.69;100.00;100636.00;5070506;28;20032;-72
2022/10/21 02:13:03;;;;;;;56.15;24.02;;;;;;;12.68;100.00;100635.97;5070637;28;20024;-72
2022/10/21 02:15:31;;;;;;;59.27;22.67;;;;;;;12.66;100.00;100637.72;5070378;28;20020;-72
2022/10/21 02:18:04;;;;;;;54.13;23.33;;;;;;;12.64;100.00;100627.22;5070232;28;20054;-72
2022/10/21 02:20:33;;;;;;;51.90;22.00;;;;;;;12.59;100.00;100614.97;5070408;28;20040;-72
2022/10/21 02:22:59;;;;;;;48.47;20.73;;;;;;;12.58;100.00;100619.31;5061762;28;20107;-72
2022/10/21 02:25:28;;;;;;;48.03;21.50;;;;;;;12.55;100.00;100611.44;5069892;28;20126;-72
2022/10/21 02:27:54;;;;;;;53.55;23.05;;;;;;;12.55;100.00;100615.78;5068987;28;20115;-76
2022/10/21 02:30:19;;;;;;;52.78;22.58;;;;;;;12.52;100.00;100609.66;5069900;28;20128;-76
2022/10/21 02:33:05;;;;;;;52.03;22.42;;;;;;;12.51;100.00;100622.69;5070270;28;20521;-76
2022/10/21 02:35:49;;;;;;;54.08;23.05;;;;;;;12.47;100.00;100628.75;5086289;28;20077;-76
2022/10/21 02:38:25;;;;;;;53.30;22.77;;;;;;;12.45;100.00;100638.31;5066468;28;20032;-76
2022/10/21 02:41:03;;;;;;;50.65;22.00;;;;;;;12.45;100.00;100633.09;5069382;28;20479;-76
2022/10/21 02:43:33;;;;;;;58.80;22.95;;;;;;;12.42;100.00;100633.91;5065940;28;20027;-76
2022/10/21 02:46:01;;;;;;;52.30;22.40;;;;;;;12.42;100.00;100633.06;5065565;28;20029;-76
2022/10/21 02:48:26;;;;;;;52.45;22.27;;;;;;;12.42;100.00;100639.16;5070788;28;20025;-76
2022/10/21 02:50:52;;;;;;;56.22;21.40;;;;;;;12.41;100.00;100626.06;5060785;28;20400;-76
2022/10/21 02:53:17;;;;;;;56.97;22.30;;;;;;;12.39;100.00;100622.56;5069747;28;20077;-76
2022/10/21 02:55:42;;;;;;;49.28;21.42;;;;;;;12.38;100.00;100612.97;5070103;28;20016;-76
2022/10/21 02:58:08;;;;;;;50.05;21.05;;;;;;;12.38;100.00;100611.22;5068660;28;20479;-72
2022/10/21 03:00:33;;;;;;;51.50;20.70;;;;;;;12.38;100.00;100607.75;5069759;28;20094;-72
2022/10/21 03:02:59;;;;;;;58.78;24.15;;;;;;;12.35;100.00;100609.47;5084246;28;20029;-72
2022/10/21 03:05:24;;;;;;;56.47;23.52;;;;;;;12.36;100.00;100605.09;5070104;28;20041;-72
2022/10/21 03:07:49;;;;;;;53.30;21.40;;;;;;;12.34;100.00;100612.06;5068964;28;20031;-72
2022/10/21 03:10:15;;;;;;;54.72;21.58;;;;;;;12.33;100.00;100619.00;5070364;28;20511;-72
2022/10/21 03:12:40;;;;;;;54.00;20.98;;;;;;;12.31;100.00;100612.00;5068820;28;20020;-72
2022/10/21 03:15:06;;;;;;;44.03;18.77;;;;;;;12.29;100.00;100605.88;5070161;28;20392;-72
2022/10/21 03:17:32;;;;;;;44.45;19.52;;;;;;;12.27;100.00;100607.63;5068970;28;20028;-72
2022/10/21 03:19:57;;;;;;;46.53;20.02;;;;;;;12.26;100.00;100606.72;5068726;28;20016;-72
2022/10/21 03:22:22;;;;;;;39.47;18.58;;;;;;;12.24;100.00;100608.44;5069375;28;20028;-72
2022/10/21 03:24:48;;;;;;;55.63;19.98;;;;;;;12.24;100.00;100611.06;5069176;28;20059;-72
2022/10/21 03:27:13;;;;;;;50.08;19.98;;;;;;;12.20;100.00;100606.66;5069223;28;20031;-72
2022/10/21 03:29:38;;;;;;;42.90;19.48;;;;;;;12.20;100.00;100617.09;5068476;28;20480;-72
2022/10/21 03:32:04;;;;;;;44.05;18.15;;;;;;;12.15;100.00;100617.03;5068695;28;20021;-72
2022/10/21 03:34:29;;;;;;;48.72;19.85;;;;;;;12.14;100.00;100610.06;5069973;28;20111;-72
2022/10/21 03:36:54;;;;;;;50.80;20.50;;;;;;;12.16;100.00;100616.16;5069279;28;20035;-76
2022/10/21 03:39:19;;;;;;;45.13;19.73;;;;;;;12.17;100.00;100614.44;5069231;28;20029;-76
2022/10/21 03:41:45;;;;;;;54.97;21.85;;;;;;;12.17;100.00;100606.63;5068551;28;20548;-76
2022/10/21 03:44:10;;;;;;;52.45;20.10;;;;;;;12.13;100.00;100605.69;5084626;28;20056;-76
2022/10/21 03:46:35;;;;;;;48.72;20.00;;;;;;;12.10;100.00;100604.78;5069136;28;20454;-76
2022/10/21 03:49:01;;;;;;;47.85;19.80;;;;;;;12.06;100.00;100601.22;5070030;28;20475;-76
2022/10/21 03:51:26;;;;;;;45.95;19.08;;;;;;;12.04;100.00;100604.69;5066337;28;20036;-76
2022/10/21 03:53:51;;;;;;;47.80;19.45;;;;;;;12.00;100.00;100604.63;5069175;28;20016;-76
2022/10/21 03:56:16;;;;;;;47.85;19.88;;;;;;;11.99;100.00;100600.28;5069025;28;20028;-76
2022/10/21 03:58:42;;;;;;;47.30;19.60;;;;;;;11.98;100.00;100605.50;5069578;28;20028;-76
2022/10/21 04:01:12;;;;;;;46.80;19.67;;;;;;;11.94;100.00;100601.06;5068995;28;20480;-76
2022/10/21 04:03:37;;;;;;;49.97;19.60;;;;;;;11.92;100.00;100594.91;5068954;28;20133;-76
2022/10/21 04:06:02;;;;;;;51.45;19.90;;;;;;;11.91;100.00;100594.03;5068929;28;20507;-76
2022/10/21 04:08:28;;;;;;;49.53;19.13;;;;;;;11.89;100.00;100595.75;5069310;28;20037;-72
2022/10/21 04:10:56;;;;;;;37.45;17.45;;;;;;;11.90;100.00;100600.09;5068124;28;20484;-72
2022/10/21 04:13:22;;;;;;;42.05;19.63;;;;;;;11.92;100.00;100594.91;5068170;28;20036;-72
2022/10/21 04:15:47;;;;;;;44.13;18.67;;;;;;;11.93;100.00;100604.50;5069038;28;20028;-71
2022/10/21 04:18:12;;;;;;;46.15;19.33;;;;;;;11.91;100.00;100604.47;5070637;28;20021;-72
2022/10/21 04:20:38;;;;;;;46.08;18.42;;;;;;;11.93;100.00;100601.88;5071851;28;20451;-72
2022/10/21 04:23:03;;;;;;;42.85;17.42;;;;;;;11.89;100.00;100598.38;5072042;28;20032;-71
2022/10/21 04:25:28;;;;;;;42.35;17.85;;;;;;;11.86;100.00;100589.59;5070987;28;20029;-72
2022/10/21 04:27:53;;;;;;;42.55;18.13;;;;;;;11.83;100.00;100593.94;5072713;28;20027;-72
2022/10/21 04:30:19;;;;;;;40.20;19.63;;;;;;;11.84;100.00;100595.66;5071156;28;20052;-72
2022/10/21 04:32:44;;;;;;;49.20;20.38;;;;;;;11.85;100.00;100599.19;5072508;28;20085;-72
2022/10/21 04:35:09;;;;;;;45.38;19.63;;;;;;;11.84;100.00;100605.25;5071540;28;20043;-72
2022/10/21 04:37:38;;;;;;;41.65;19.02;;;;;;;11.84;100.00;100603.50;5073171;28;20024;-71
2022/10/21 04:40:05;;;;;;;43.88;20.27;;;;;;;11.86;100.00;100608.78;5072571;28;20039;-72
2022/10/21 04:42:30;;;;;;;45.70;20.45;;;;;;;11.85;100.00;100609.63;5060369;28;20020;-72
2022/10/21 04:44:56;;;;;;;39.60;20.10;;;;;;;11.85;100.00;100604.41;5072295;28;20097;-72
2022/10/21 04:47:21;;;;;;;39.17;18.67;;;;;;;11.82;100.00;100606.97;5073020;28;20024;-72
2022/10/21 04:49:46;;;;;;;38.22;19.67;;;;;;;11.81;100.00;100610.44;5072703;28;20024;-72
2022/10/21 04:52:11;;;;;;;43.42;17.80;;;;;;;11.84;100.00;100613.09;5066591;28;20024;-72
2022/10/21 04:54:37;;;;;;;44.05;18.60;;;;;;;11.86;100.00;100598.34;5065008;28;20499;-71
2022/10/21 04:57:02;;;;;;;41.72;16.33;;;;;;;11.87;100.00;100600.06;5064270;28;20186;-71
2022/10/21 04:59:27;;;;;;;36.75;15.00;;;;;;;11.87;100.00;100591.38;5064701;28;20039;-72
2022/10/21 05:01:53;;;;;;;34.08;15.00;;;;;;;11.84;100.00;100598.28;5064579;28;20119;-72
2022/10/21 05:04:18;;;;;;;39.72;15.77;;;;;;;11.84;100.00;100592.19;5064870;28;20062;-71
2022/10/21 05:06:43;;;;;;;36.38;15.35;;;;;;;11.84;100.00;100594.81;5057560;28;20529;-72
2022/10/21 05:09:09;;;;;;;32.75;14.73;;;;;;;11.81;100.00;100594.75;5064377;28;20476;-71
2022/10/21 05:11:34;;;;;;;34.50;13.70;;;;;;;11.78;100.00;100598.19;5067045;28;20071;-72
2022/10/21 05:14:00;;;;;;;34.03;13.23;;;;;;;11.77;100.00;100596.44;5086297;28;20127;-71
2022/10/21 05:16:25;;;;;;;32.47;13.05;;;;;;;11.75;100.00;100602.53;5071751;28;20048;-71
2022/10/21 05:18:50;;;;;;;28.85;12.00;;;;;;;11.72;100.00;100592.03;5070518;28;20032;-71
2022/10/21 05:21:15;;;;;;;26.60;11.02;;;;;;;11.71;100.00;100595.50;5064501;28;20111;-71
2022/10/21 05:23:41;;;;;;;27.67;11.48;;;;;;;11.70;100.00;100594.59;5071206;28;20111;-71
2022/10/21 05:26:07;;;;;;;25.67;11.00;;;;;;;11.70;100.00;100589.38;5067219;28;20039;-71
2022/10/21 05:28:32;;;;;;;30.80;12.15;;;;;;;11.72;100.00;100589.41;5070069;28;20487;-71
2022/10/21 05:30:57;;;;;;;30.02;11.77;;;;;;;11.72;100.00;100587.69;5070721;28;20051;-71
2022/10/21 05:33:23;;;;;;;28.60;11.30;;;;;;;11.74;100.00;100577.25;5071140;28;20065;-71
2022/10/21 05:36:05;;;;;;;25.55;10.65;;;;;;;11.75;100.00;100579.03;5072116;28;20044;-71
2022/10/21 05:38:31;;;;;;;24.52;9.35;;;;;;;11.74;100.00;100572.91;5067866;28;20024;-76
2022/10/21 05:40:56;;;;;;;21.15;8.90;;;;;;;11.76;100.00;100570.31;5066163;28;20067;-76
2022/10/21 05:43:22;;;;;;;24.33;9.10;;;;;;;11.76;100.00;100565.09;5067875;28;20032;-76
2022/10/21 05:45:47;;;;;;;23.65;9.07;;;;;;;11.76;100.00;100558.16;5071869;28;20029;-76
2022/10/21 05:48:13;;;;;;;26.13;8.38;;;;;;;11.78;100.00;100568.63;5071266;28;20025;-75
2022/10/21 05:50:38;;;;;;;23.75;9.18;;;;;;;11.80;100.00;100559.06;5069985;28;20409;-75
2022/10/21 05:53:04;;;;;;;24.80;9.75;;;;;;;11.78;100.00;100556.44;5070974;28;20044;-75
2022/10/21 05:55:29;;;;;;;19.63;8.70;;;;;;;11.79;100.00;100545.16;5071343;28;20419;-76
2022/10/21 05:57:54;;;;;;;26.77;8.88;;;;;;;11.79;100.00;100552.13;5086665;28;20036;-75
2022/10/21 06:00:19;;;;;;;22.98;8.93;;;;;;;11.78;100.00;100561.66;5070896;28;20029;-75
2022/10/21 06:02:45;;;;;;;25.75;9.32;;;;;;;11.77;100.00;100564.25;5071253;28;20070;-75
2022/10/21 06:05:10;;;;;;;27.77;9.88;;;;;;;11.78;100.00;100558.19;5069940;28;20036;-75
2022/10/21 06:07:35;;;;;;;27.65;8.38;;;;;;;11.77;100.00;100559.03;5066825;28;20028;-71
2022/10/21 06:10:01;;;;;;;27.38;8.63;;;;;;;11.77;100.00;100559.03;5063545;28;20503;-71
2022/10/21 06:12:26;;;;;;;22.75;9.10;;;;;;;11.77;100.00;100559.88;5064426;28;20105;-71
2022/10/21 06:14:52;;;;;;;23.30;10.45;;;;;;;11.78;100.00;100558.19;5063041;28;20349;-71
2022/10/21 06:17:18;;;;;;;26.67;9.15;;;;;;;11.77;100.00;100561.63;5062778;28;20545;-71
2022/10/21 06:19:43;;;;;;;25.20;10.23;;;;;;;11.78;100.00;100560.78;5063876;28;20040;-71
2022/10/21 06:22:08;;;;;;;26.67;10.70;;;;;;;11.77;100.00;100549.44;5067616;28;20487;-71
2022/10/21 06:24:33;;;;;;;26.27;9.85;;;;;;;11.78;100.00;100552.97;5065724;28;20020;-71
2022/10/21 06:26:59;;;;;;;26.80;10.90;;;;;;;11.77;100.00;100552.06;5069512;28;20012;-71
2022/10/21 06:29:24;;;;;;;24.77;10.25;;;;;;;11.76;100.00;100549.44;5069737;28;20083;-71
2022/10/21 06:31:49;;;;;;;23.17;10.05;;;;;;;11.74;100.00;100553.78;5070839;28;20054;-71
2022/10/21 06:34:15;;;;;;;25.95;10.23;;;;;;;11.74;100.00;100557.25;5070255;28;20451;-71
2022/10/21 06:36:40;;;;;;;25.40;10.02;;;;;;;11.73;100.00;100555.50;5085025;28;20028;-76
2022/10/21 06:39:06;;;;;;;27.05;10.85;;;;;;;11.72;100.00;100555.50;5065474;28;20135;-76
2022/10/21 06:41:32;;;;;;;26.38;9.90;;;;;;;11.71;100.00;100565.03;5065616;28;20039;-76
2022/10/21 06:43:57;;;;;;;24.88;10.18;;;;;;;11.72;100.00;100560.72;5070438;28;20025;-75
2022/10/21 06:46:23;;;;;;;23.50;10.55;;;;;;;11.71;100.00;100574.59;5068694;28;20035;-76
2022/10/21 06:48:48;;;;;;;22.08;9.70;;;;;;;11.72;100.00;100582.47;5069372;28;20500;-75
2022/10/21 06:51:16;;;;;;;23.35;9.98;;;;;;;11.71;100.00;100587.66;5070043;28;20590;-75
2022/10/21 06:53:43;;;;;;;27.02;10.63;;;;;;;11.69;100.00;100585.03;5064111;28;20067;-75
2022/10/21 06:56:15;;;;;;;26.67;10.15;;;;;;;11.69;100.00;100594.56;5068172;28;20491;-75
2022/10/21 06:58:45;;;;;;;29.85;10.55;;;;;;;11.71;100.00;100590.28;5059323;28;20028;-74
2022/10/21 07:01:12;;;;;;;25.23;10.48;;;;;;;11.72;100.00;100599.88;5075903;28;20052;-73
2022/10/21 07:03:38;;;;;;;31.13;10.70;;;;;;;11.76;100.00;100602.53;5078169;28;20016;-72
2022/10/21 07:06:03;;;;;;;27.30;10.68;;;;;;;11.78;100.00;100613.00;5080574;28;20055;-72
2022/10/21 07:08:30;;;;;;;26.23;10.88;;;;;;;11.78;100.00;100610.38;5082593;28;20031;-72
2022/10/21 07:10:55;;;;;;;26.80;10.80;;;;;;;11.80;100.00;100619.09;5081618;28;20044;-72
2022/10/21 07:13:22;;;;;;;23.55;10.35;;;;;;;11.83;100.00;100632.19;5082807;28;20031;-72
2022/10/21 07:15:57;;;;;;;28.30;10.05;;;;;;;11.89;100.00;100627.09;5082633;28;20031;-72
2022/10/21 07:18:22;;;;;;;23.25;9.77;;;;;;;11.91;100.00;100627.97;5082852;28;20024;-72
2022/10/21 07:20:47;;;;;;;20.77;9.73;;;;;;;11.96;100.00;100633.28;5082609;28;20034;-72
2022/10/21 07:23:13;;;;;;;26.45;10.30;;;;;;;11.97;100.00;100625.47;5082685;28;20025;-72
2022/10/21 07:25:38;;;;;;;29.15;10.10;;;;;;;11.99;100.00;100626.41;5082730;28;20192;-72
2022/10/21 07:28:03;;;;;;;25.08;9.15;;;;;;;12.05;100.00;100629.94;5082640;28;20263;-72
2022/10/21 07:30:29;;;;;;;28.02;9.38;;;;;;;12.07;100.00;100633.47;5082666;28;20044;-72
2022/10/21 07:32:54;;;;;;;23.50;8.50;;;;;;;12.10;100.00;100629.16;5081558;28;20016;-72
2022/10/21 07:35:19;;;;;;;25.08;8.32;;;;;;;12.13;100.00;100633.53;5081462;28;20012;-72
2022/10/21 07:37:44;;;;;;;26.58;9.05;;;;;;;12.17;100.00;100630.13;5082706;28;20032;-73
2022/10/21 07:40:11;;;;;;;26.52;10.68;;;;;;;12.23;100.00;100632.81;5082600;28;20044;-72
2022/10/21 07:42:36;;;;;;;33.25;12.73;;;;;;;12.26;100.00;100632.84;5082437;28;20271;-72
2022/10/21 07:45:02;;;;;;;33.00;12.18;;;;;;;12.31;100.00;100645.97;5082697;28;20035;-72
2022/10/21 07:47:28;;;;;;;26.23;11.60;;;;;;;12.35;100.00;100650.38;5082673;28;20021;-73
2022/10/21 07:49:53;;;;;;;27.30;12.32;;;;;;;12.39;100.00;100648.69;5082579;28;20090;-72
2022/10/21 07:52:18;;;;;;;27.98;11.55;;;;;;;12.41;100.00;100650.47;5083643;28;20028;-72
2022/10/21 07:54:43;;;;;;;28.90;12.85;;;;;;;12.45;100.00;100654.00;5086572;28;20167;-73
2022/10/21 07:57:09;;;;;;;24.88;11.65;;;;;;;12.48;100.00;100654.91;5086411;28;20209;-72
2022/10/21 07:59:34;;;;;;;28.15;10.70;;;;;;;12.53;100.00;100652.38;5086489;28;20062;-73
2022/10/21 08:01:59;;;;;;;27.60;11.10;;;;;;;12.57;100.00;100654.16;5086367;28;20126;-73
2022/10/21 08:04:28;;;;;;;26.90;10.38;;;;;;;12.61;100.00;100650.69;5086297;28;20024;-73
2022/10/21 08:06:54;;;;;;;32.90;12.32;;;;;;;12.65;100.00;100647.25;5087055;28;20029;-72
2022/10/21 08:09:20;;;;;;;24.25;10.60;;;;;;;12.68;100.00;100659.50;5086248;28;20045;-72
2022/10/21 08:11:45;;;;;;;27.00;11.65;;;;;;;12.69;100.00;100642.97;5086432;28;20044;-73
2022/10/21 08:14:11;;;;;;;29.27;12.45;;;;;;;12.72;100.00;100637.78;5086204;28;20087;-72
2022/10/21 08:16:37;;;;;;;29.40;12.82;;;;;;;12.74;100.00;100640.41;5086304;28;20319;-72
2022/10/21 08:19:04;;;;;;;36.63;13.68;;;;;;;12.75;100.00;100632.56;5084900;28;20263;-73
2022/10/21 08:21:30;;;;;;;35.80;14.90;;;;;;;12.76;100.00;100633.44;5086077;28;20024;-73
2022/10/21 08:23:56;;;;;;;33.15;13.38;;;;;;;12.77;100.00;100636.06;5086098;28;20086;-72
2022/10/21 08:26:21;;;;;;;29.02;13.23;;;;;;;12.79;100.00;100633.47;5085625;28;20032;-73
2022/10/21 08:28:47;;;;;;;35.90;14.13;;;;;;;12.80;100.00;100645.69;5085916;28;20027;-72
2022/10/21 08:31:16;;;;;;;38.53;15.65;;;;;;;12.80;100.00;100666.59;5085768;28;20291;-73
2022/10/21 08:33:41;;;;;;;;;;;;;;;12.85;100.00;100663.19;5086251;28;20021;-72
2022/10/21 08:36:26;;;;;;;37.72;15.68;;;;;;;12.81;100.00;100655.28;5084425;28;20154;-72
2022/10/21 08:38:52;;;;;;;36.25;16.52;;;;;;;12.80;100.00;100657.03;5085196;28;20187;-68
2022/10/21 08:41:30;;;;;;;39.15;17.33;;;;;;;12.81;100.00;100668.38;5080757;28;20154;-68
2022/10/21 08:44:04;;;;;;;37.95;17.75;;;;;;;12.82;100.00;100655.31;5081488;28;20092;-68
2022/10/21 08:46:42;;;;;;;39.70;16.42;;;;;;;12.86;100.00;100664.06;5085601;28;20035;-68
2022/10/21 08:49:22;;;;;;;41.10;17.50;;;;;;;12.89;100.00;100677.19;5085339;28;20021;-68
2022/10/21 08:51:58;;;;;;;35.05;16.23;;;;;;;12.92;100.00;100666.75;5079941;28;21014;-68
2022/10/21 08:54:32;;;;;;;41.40;15.77;;;;;;;12.93;100.00;100673.72;5098549;28;20039;-68
2022/10/21 08:56:59;;;;;;;37.55;14.70;;;;;;;12.98;100.00;100666.81;5085504;28;20020;-69
2022/10/21 08:59:25;;;;;;;29.83;12.25;;;;;;;13.02;100.00;100670.31;5085324;28;20024;-68
2022/10/21 09:02:22;;;;;;;37.05;12.63;;;;;;;13.06;100.00;100679.97;5085588;28;20272;-68
2022/10/21 09:04:54;;;;;;;32.65;12.02;;;;;;;13.09;100.00;100687.84;5083168;28;20060;-68
2022/10/21 09:07:37;;;;;;;33.03;11.88;;;;;;;13.13;100.00;100680.91;5085080;28;20072;-71
2022/10/21 09:10:17;;;;;;;29.67;11.80;;;;;;;13.17;100.00;100688.81;5079678;28;20060;-71
2022/10/21 09:12:58;;;;;;;29.08;11.25;;;;;;;13.20;100.00;100687.97;5083781;28;20164;-72
2022/10/21 09:15:29;;;;;;;31.77;10.68;;;;;;;13.25;100.00;100685.41;5084899;28;20034;-71
2022/10/21 09:18:15;;;;;;;26.10;9.40;;;;;;;13.28;100.00;100683.69;5085062;28;20036;-71
2022/10/21 09:20:55;;;;;;;22.05;8.50;;;;;;;13.33;100.00;100676.75;5085107;28;20179;-71
2022/10/21 09:23:20;;;;;;;;;;;;;;;13.41;100.00;100670.75;5085348;28;20099;-71
2022/10/21 09:26:08;;;;;;;19.92;6.65;;;;;;;13.45;100.00;100656.84;5084622;28;20052;-70
2022/10/21 09:28:34;;;;;;;17.15;6.57;;;;;;;13.47;100.00;100657.72;5084879;28;20091;-70
2022/10/21 09:31:01;;;;;;;14.73;5.43;;;;;;;13.54;100.00;100656.91;5084783;28;20041;-71
2022/10/21 09:33:30;;;;;;;16.80;5.88;;;;;;;13.60;100.00;100671.78;5084825;28;20024;-71
2022/10/21 09:36:12;;;;;;;15.75;5.85;;;;;;;13.66;100.00;100669.25;5084995;28;20028;-71
2022/10/21 09:38:42;;;;;;;17.98;6.00;;;;;;;13.73;100.00;100665.81;5083376;28;20039;-69
2022/10/21 09:41:15;;;;;;;14.52;5.45;;;;;;;13.81;100.00;100665.84;5084599;28;20068;-69
2022/10/21 09:43:42;;;;;;;12.98;5.40;;;;;;;13.87;100.00;100665.91;5084708;28;20050;-69
2022/10/21 09:46:12;;;;;;;12.75;5.10;;;;;;;13.93;100.00;100660.69;5083204;28;20031;-69
2022/10/21 09:48:46;;;;;;;16.85;5.80;;;;;;;14.00;100.00;100659.00;5084457;28;20021;-69
2022/10/21 09:51:17;;;;;;;16.17;4.53;;;;;;;14.05;100.00;100660.78;5084449;28;20309;-69
2022/10/21 09:54:01;;;;;;;16.52;4.63;;;;;;;14.13;100.00;100654.72;5084460;28;20096;-68
2022/10/21 09:56:32;;;;;;;11.82;4.18;;;;;;;14.19;100.00;100657.38;5084112;28;20036;-69
2022/10/21 09:59:16;;;;;;;10.82;4.72;;;;;;;14.25;100.00;100662.63;5084254;28;20048;-69
2022/10/21 10:01:42;;;;;;;16.45;5.00;;;;;;;14.32;100.00;100664.41;5084354;28;20039;-69
2022/10/21 10:04:31;;;;;;;15.95;5.40;;;;;;;14.39;100.00;100676.69;5084295;28;20070;-69
2022/10/21 10:07:00;;;;;;;16.45;5.68;;;;;;;14.44;100.00;100674.13;5083813;28;20101;-71
2022/10/21 10:09:33;;;;;;;15.10;5.35;;;;;;;14.50;100.00;100671.50;5083854;28;20040;-71
2022/10/21 10:12:20;;;;;;;16.95;6.40;;;;;;;14.52;100.00;100677.63;5082837;28;20152;-71
2022/10/21 10:14:46;;;;;;;20.42;6.55;;;;;;;14.59;100.00;100675.91;5083021;28;20131;-71
2022/10/21 10:17:34;;;;;;;17.15;6.47;;;;;;;14.61;100.00;100676.78;5083842;28;20052;-71
2022/10/21 10:20:02;;;;;;;19.60;7.23;;;;;;;14.67;100.00;100687.34;5070349;28;20087;-71
2022/10/21 10:22:29;;;;;;;25.98;7.93;;;;;;;14.71;100.00;100689.09;5083858;28;20020;-71
2022/10/21 10:25:11;;;;;;;21.00;8.02;;;;;;;14.77;100.00;100693.50;5083626;28;20047;-71
2022/10/21 10:27:46;;;;;;;22.30;7.93;;;;;;;14.83;100.00;100688.28;5083729;28;20055;-71
2022/10/21 10:30:13;;;;;;;24.90;8.45;;;;;;;14.90;100.00;100695.31;5083602;28;20104;-72
2022/10/21 10:32:39;;;;;;;23.08;8.45;;;;;;;14.95;100.00;100685.69;5083599;28;20044;-72
2022/10/21 10:35:14;;;;;;;21.50;8.15;;;;;;;15.02;100.00;100686.59;5083550;28;20156;-72
2022/10/21 10:37:47;;;;;;;28.42;8.90;;;;;;;15.12;100.00;100691.00;5083209;28;20028;-69
2022/10/21 10:40:20;;;;;;;24.98;8.75;;;;;;;15.17;100.00;100687.50;5080918;28;20016;-68
2022/10/21 10:42:45;;;;;;;26.45;9.05;;;;;;;15.25;100.00;100680.50;5077747;28;20048;-68
2022/10/21 10:45:18;;;;;;;24.15;9.20;;;;;;;15.30;100.00;100682.28;5082111;28;20536;-68
2022/10/21 10:48:12;;;;;;;29.20;8.63;;;;;;;15.37;100.00;100682.31;5083296;28;20028;-68
2022/10/21 10:50:37;;;;;;;22.10;8.50;;;;;;;15.44;100.00;100690.19;5081069;28;20028;-68
2022/10/21 10:53:20;;;;;;;25.20;8.52;;;;;;;15.53;100.00;100691.94;5080584;28;20055;-68
2022/10/21 10:55:52;;;;;;;23.23;8.23;;;;;;;15.63;100.00;100690.19;5078465;28;20147;-68
2022/10/21 10:58:18;;;;;;;18.50;7.70;;;;;;;15.71;100.00;100693.69;5080457;28;20029;-68
2022/10/21 11:00:46;;;;;;;22.13;8.13;;;;;;;15.86;100.00;100691.94;5082581;28;20057;-68
2022/10/21 11:03:25;;;;;;;18.88;8.02;;;;;;;16.06;100.00;100689.31;5081548;28;20285;-68
2022/10/21 11:05:56;;;;;;;27.57;10.67;;;;;;;16.20;100.00;100681.41;5082327;28;20043;-68
2022/10/21 11:08:35;;;;;;;25.98;9.65;;;;;;;16.30;100.00;100673.47;5082531;28;20294;-69
2022/10/21 11:11:04;;;;;;;22.52;10.23;;;;;;;16.37;100.00;100676.97;5079529;28;20206;-68
2022/10/21 11:13:33;;;;;;;23.10;8.85;;;;;;;16.46;100.00;100669.03;5079002;28;20036;-68